sensor_id;sensor_type;location;lat;lon;timestamp;temperature;humidity
11650;DHT22;5881;48.522;7.682;2023-08-30T00:00:13;14.10;99.90
11650;DHT22;5881;48.522;7.682;2023-08-30T00:02:39;14.10;99.90
11650;DHT22;5881;48.522;7.682;2023-08-30T00:05:05;14.00;99.90
11650;DHT22;5881;48.522;7.682;2023-08-30T00:07:30;14.10;99.90
11650;DHT22;5881;48.522;7.682;2023-08-30T00:09:58;14.10;99.90
11650;DHT22;5881;48.522;7.682;2023-08-30T00:12:23;14.10;99.90
11650;DHT22;5881;48.522;7.682;2023-08-30T00:14:50;14.10;99.90
11650;DHT22;5881;48.522;7.682;2023-08-30T00:17:16;14.10;99.90
11650;DHT22;5881;48.522;7.682;2023-08-30T00:19:41;14.10;99.90
11650;DHT22;5881;48.522;7.682;2023-08-30T00:22:07;14.10;99.90
11650;DHT22;5881;48.522;7.682;2023-08-30T00:24:33;14.10;99.90
11650;DHT22;5881;48.522;7.682;2023-08-30T00:27:00;14.10;99.90
11650;DHT22;5881;48.522;7.682;2023-08-30T00:29:25;14.10;99.90
11650;DHT22;5881;48.522;7.682;2023-08-30T00:31:51;14.10;99.90
11650;DHT22;5881;48.522;7.682;2023-08-30T00:34:17;14.10;99.90
11650;DHT22;5881;48.522;7.682;2023-08-30T00:36:42;14.10;99.90
11650;DHT22;5881;48.522;7.682;2023-08-30T00:39:08;14.10;99.90
11650;DHT22;5881;48.522;7.682;2023-08-30T00:41:34;14.10;99.90
11650;DHT22;5881;48.522;7.682;2023-08-30T00:44:00;14.10;99.90
11650;DHT22;5881;48.522;7.682;2023-08-30T00:46:26;14.10;99.90
11650;DHT22;5881;48.522;7.682;2023-08-30T00:48:53;14.10;99.90
11650;DHT22;5881;48.522;7.682;2023-08-30T00:51:18;14.10;99.90
11650;DHT22;5881;48.522;7.682;2023-08-30T00:53:44;14.10;99.90
11650;DHT22;5881;48.522;7.682;2023-08-30T00:56:10;14.10;99.90
11650;DHT22;5881;48.522;7.682;2023-08-30T00:58:37;14.10;99.90
11650;DHT22;5881;48.522;7.682;2023-08-30T01:01:04;14.10;99.90
11650;DHT22;5881;48.522;7.682;2023-08-30T01:03:34;14.10;99.90
11650;DHT22;5881;48.522;7.682;2023-08-30T01:05:59;14.10;99.90
11650;DHT22;5881;48.522;7.682;2023-08-30T01:08:25;14.10;99.90
11650;DHT22;5881;48.522;7.682;2023-08-30T01:11:10;14.10;99.90
11650;DHT22;5881;48.522;7.682;2023-08-30T01:16:24;14.20;99.90
11650;DHT22;5881;48.522;7.682;2023-08-30T01:18:54;14.20;99.90
11650;DHT22;5881;48.522;7.682;2023-08-30T01:21:48;14.20;99.90
11650;DHT22;5881;48.522;7.682;2023-08-30T01:24:26;14.20;99.90
11650;DHT22;5881;48.522;7.682;2023-08-30T01:27:10;14.10;99.90
11650;DHT22;5881;48.522;7.682;2023-08-30T01:29:40;14.10;99.90
11650;DHT22;5881;48.522;7.682;2023-08-30T01:32:09;14.10;99.90
11650;DHT22;5881;48.522;7.682;2023-08-30T01:34:36;14.10;99.90
11650;DHT22;5881;48.522;7.682;2023-08-30T01:37:05;14.20;99.90
11650;DHT22;5881;48.522;7.682;2023-08-30T01:39:31;14.00;99.90
11650;DHT22;5881;48.522;7.682;2023-08-30T01:41:57;14.00;99.90
11650;DHT22;5881;48.522;7.682;2023-08-30T01:44:30;14.00;99.90
11650;DHT22;5881;48.522;7.682;2023-08-30T01:46:57;14.10;99.90
11650;DHT22;5881;48.522;7.682;2023-08-30T01:49:24;13.90;99.90
11650;DHT22;5881;48.522;7.682;2023-08-30T01:51:51;13.90;99.90
11650;DHT22;5881;48.522;7.682;2023-08-30T01:54:18;13.90;99.90
11650;DHT22;5881;48.522;7.682;2023-08-30T01:56:45;13.90;99.90
11650;DHT22;5881;48.522;7.682;2023-08-30T01:59:11;13.90;99.90
11650;DHT22;5881;48.522;7.682;2023-08-30T02:01:37;14.00;99.90
11650;DHT22;5881;48.522;7.682;2023-08-30T02:04:03;13.90;99.90
11650;DHT22;5881;48.522;7.682;2023-08-30T02:06:45;13.90;99.90
11650;DHT22;5881;48.522;7.682;2023-08-30T02:09:24;13.90;99.90
11650;DHT22;5881;48.522;7.682;2023-08-30T02:11:52;13.90;99.90
11650;DHT22;5881;48.522;7.682;2023-08-30T02:14:20;14.00;99.90
11650;DHT22;5881;48.522;7.682;2023-08-30T02:16:47;14.00;99.90
11650;DHT22;5881;48.522;7.682;2023-08-30T02:19:13;13.90;99.90
11650;DHT22;5881;48.522;7.682;2023-08-30T02:21:42;13.90;99.90
11650;DHT22;5881;48.522;7.682;2023-08-30T02:24:08;13.90;99.90
11650;DHT22;5881;48.522;7.682;2023-08-30T02:26:34;13.90;99.90
11650;DHT22;5881;48.522;7.682;2023-08-30T02:28:59;13.80;99.90
11650;DHT22;5881;48.522;7.682;2023-08-30T02:31:25;13.80;99.90
11650;DHT22;5881;48.522;7.682;2023-08-30T02:33:50;13.90;99.90
11650;DHT22;5881;48.522;7.682;2023-08-30T02:36:16;13.90;99.90
11650;DHT22;5881;48.522;7.682;2023-08-30T02:38:42;13.90;99.90
11650;DHT22;5881;48.522;7.682;2023-08-30T02:41:07;14.00;99.90
11650;DHT22;5881;48.522;7.682;2023-08-30T02:43:33;14.00;99.90
11650;DHT22;5881;48.522;7.682;2023-08-30T02:45:58;14.00;99.90
11650;DHT22;5881;48.522;7.682;2023-08-30T02:48:24;13.90;99.90
11650;DHT22;5881;48.522;7.682;2023-08-30T02:50:50;13.90;99.90
11650;DHT22;5881;48.522;7.682;2023-08-30T02:53:15;13.90;99.90
11650;DHT22;5881;48.522;7.682;2023-08-30T02:55:41;13.90;99.90
11650;DHT22;5881;48.522;7.682;2023-08-30T02:58:06;13.90;99.90
11650;DHT22;5881;48.522;7.682;2023-08-30T03:00:32;13.80;99.90
11650;DHT22;5881;48.522;7.682;2023-08-30T03:02:59;13.90;99.90
11650;DHT22;5881;48.522;7.682;2023-08-30T03:05:25;13.80;99.90
11650;DHT22;5881;48.522;7.682;2023-08-30T03:07:52;13.80;99.90
11650;DHT22;5881;48.522;7.682;2023-08-30T03:10:18;13.80;99.90
11650;DHT22;5881;48.522;7.682;2023-08-30T03:12:43;13.80;99.90
11650;DHT22;5881;48.522;7.682;2023-08-30T03:15:09;13.80;99.90
11650;DHT22;5881;48.522;7.682;2023-08-30T03:17:35;13.80;99.90
11650;DHT22;5881;48.522;7.682;2023-08-30T03:20:01;13.80;99.90
11650;DHT22;5881;48.522;7.682;2023-08-30T03:22:29;13.80;99.90
11650;DHT22;5881;48.522;7.682;2023-08-30T03:24:55;13.80;99.90
11650;DHT22;5881;48.522;7.682;2023-08-30T03:27:21;13.80;99.90
11650;DHT22;5881;48.522;7.682;2023-08-30T03:29:47;13.80;99.90
11650;DHT22;5881;48.522;7.682;2023-08-30T03:32:17;13.90;99.90
11650;DHT22;5881;48.522;7.682;2023-08-30T03:34:47;13.90;99.90
11650;DHT22;5881;48.522;7.682;2023-08-30T03:37:14;13.80;99.90
11650;DHT22;5881;48.522;7.682;2023-08-30T03:39:40;13.80;99.90
11650;DHT22;5881;48.522;7.682;2023-08-30T03:42:06;13.80;99.90
11650;DHT22;5881;48.522;7.682;2023-08-30T03:44:31;13.80;99.90
11650;DHT22;5881;48.522;7.682;2023-08-30T03:46:57;13.80;99.90
11650;DHT22;5881;48.522;7.682;2023-08-30T03:49:23;13.80;99.90
11650;DHT22;5881;48.522;7.682;2023-08-30T03:51:49;13.80;99.90
11650;DHT22;5881;48.522;7.682;2023-08-30T03:54:14;13.80;99.90
11650;DHT22;5881;48.522;7.682;2023-08-30T03:56:45;13.90;99.90
11650;DHT22;5881;48.522;7.682;2023-08-30T03:59:14;13.80;99.90
11650;DHT22;5881;48.522;7.682;2023-08-30T04:01:39;13.80;99.90
11650;DHT22;5881;48.522;7.682;2023-08-30T04:04:05;13.80;99.90
11650;DHT22;5881;48.522;7.682;2023-08-30T04:06:31;13.80;99.90
11650;DHT22;5881;48.522;7.682;2023-08-30T04:08:57;13.80;99.90
11650;DHT22;5881;48.522;7.682;2023-08-30T04:11:23;13.70;99.90
11650;DHT22;5881;48.522;7.682;2023-08-30T04:13:48;13.70;99.90
11650;DHT22;5881;48.522;7.682;2023-08-30T04:16:14;13.70;99.90
11650;DHT22;5881;48.522;7.682;2023-08-30T04:18:39;13.70;99.90
11650;DHT22;5881;48.522;7.682;2023-08-30T04:21:05;13.70;99.90
11650;DHT22;5881;48.522;7.682;2023-08-30T04:23:33;13.70;99.90
11650;DHT22;5881;48.522;7.682;2023-08-30T04:25:58;13.70;99.90
11650;DHT22;5881;48.522;7.682;2023-08-30T04:28:24;13.70;99.90
11650;DHT22;5881;48.522;7.682;2023-08-30T04:30:49;13.70;99.90
11650;DHT22;5881;48.522;7.682;2023-08-30T04:33:18;13.70;99.90
11650;DHT22;5881;48.522;7.682;2023-08-30T04:35:43;13.70;99.90
11650;DHT22;5881;48.522;7.682;2023-08-30T04:38:09;13.70;99.90
11650;DHT22;5881;48.522;7.682;2023-08-30T04:40:35;13.70;99.90
11650;DHT22;5881;48.522;7.682;2023-08-30T04:43:01;13.70;99.90
11650;DHT22;5881;48.522;7.682;2023-08-30T04:45:26;13.70;99.90
11650;DHT22;5881;48.522;7.682;2023-08-30T04:47:53;13.70;99.90
11650;DHT22;5881;48.522;7.682;2023-08-30T04:50:18;13.70;99.90
11650;DHT22;5881;48.522;7.682;2023-08-30T04:52:44;13.70;99.90
11650;DHT22;5881;48.522;7.682;2023-08-30T04:55:10;13.70;99.90
11650;DHT22;5881;48.522;7.682;2023-08-30T04:57:35;13.80;99.90
11650;DHT22;5881;48.522;7.682;2023-08-30T05:00:01;13.70;99.90
11650;DHT22;5881;48.522;7.682;2023-08-30T05:02:30;13.80;99.90
11650;DHT22;5881;48.522;7.682;2023-08-30T05:04:56;13.80;99.90
11650;DHT22;5881;48.522;7.682;2023-08-30T05:07:21;13.80;99.90
11650;DHT22;5881;48.522;7.682;2023-08-30T05:09:47;13.80;99.90
11650;DHT22;5881;48.522;7.682;2023-08-30T05:12:12;13.70;99.90
11650;DHT22;5881;48.522;7.682;2023-08-30T05:14:38;13.70;99.90
11650;DHT22;5881;48.522;7.682;2023-08-30T05:17:04;13.70;99.90
11650;DHT22;5881;48.522;7.682;2023-08-30T05:19:29;13.70;99.90
11650;DHT22;5881;48.522;7.682;2023-08-30T05:21:55;13.70;99.90
11650;DHT22;5881;48.522;7.682;2023-08-30T05:24:21;13.70;99.90
11650;DHT22;5881;48.522;7.682;2023-08-30T05:26:47;13.70;99.90
11650;DHT22;5881;48.522;7.682;2023-08-30T05:29:14;13.70;99.90
11650;DHT22;5881;48.522;7.682;2023-08-30T05:31:40;13.80;99.90
11650;DHT22;5881;48.522;7.682;2023-08-30T05:34:06;13.70;99.90
11650;DHT22;5881;48.522;7.682;2023-08-30T05:36:32;13.80;99.90
11650;DHT22;5881;48.522;7.682;2023-08-30T05:38:58;13.80;99.90
11650;DHT22;5881;48.522;7.682;2023-08-30T05:41:23;13.80;99.90
11650;DHT22;5881;48.522;7.682;2023-08-30T05:43:49;13.90;99.90
11650;DHT22;5881;48.522;7.682;2023-08-30T05:46:14;14.00;99.90
11650;DHT22;5881;48.522;7.682;2023-08-30T05:48:41;14.00;99.90
11650;DHT22;5881;48.522;7.682;2023-08-30T05:51:07;14.10;99.90
11650;DHT22;5881;48.522;7.682;2023-08-30T05:53:32;14.10;99.90
11650;DHT22;5881;48.522;7.682;2023-08-30T05:55:58;14.20;99.90
11650;DHT22;5881;48.522;7.682;2023-08-30T05:58:23;14.30;99.90
11650;DHT22;5881;48.522;7.682;2023-08-30T06:00:49;14.40;99.90
11650;DHT22;5881;48.522;7.682;2023-08-30T06:03:15;14.40;99.90
11650;DHT22;5881;48.522;7.682;2023-08-30T06:05:40;14.40;99.90
11650;DHT22;5881;48.522;7.682;2023-08-30T06:08:06;14.40;99.90
11650;DHT22;5881;48.522;7.682;2023-08-30T06:10:33;14.50;99.90
11650;DHT22;5881;48.522;7.682;2023-08-30T06:12:58;14.50;99.90
11650;DHT22;5881;48.522;7.682;2023-08-30T06:15:24;14.50;99.90
11650;DHT22;5881;48.522;7.682;2023-08-30T06:17:50;14.60;99.90
11650;DHT22;5881;48.522;7.682;2023-08-30T06:20:15;14.70;99.90
11650;DHT22;5881;48.522;7.682;2023-08-30T06:22:42;15.00;99.90
11650;DHT22;5881;48.522;7.682;2023-08-30T06:25:08;15.00;99.90
11650;DHT22;5881;48.522;7.682;2023-08-30T06:27:40;14.90;99.90
11650;DHT22;5881;48.522;7.682;2023-08-30T06:30:06;15.00;99.90
11650;DHT22;5881;48.522;7.682;2023-08-30T06:32:32;15.00;99.90
11650;DHT22;5881;48.522;7.682;2023-08-30T06:34:58;15.00;99.90
11650;DHT22;5881;48.522;7.682;2023-08-30T06:37:24;15.10;99.90
11650;DHT22;5881;48.522;7.682;2023-08-30T06:39:50;15.10;99.90
11650;DHT22;5881;48.522;7.682;2023-08-30T06:42:16;15.10;99.90
11650;DHT22;5881;48.522;7.682;2023-08-30T06:44:42;15.20;99.90
11650;DHT22;5881;48.522;7.682;2023-08-30T06:47:07;15.20;99.90
11650;DHT22;5881;48.522;7.682;2023-08-30T06:49:33;15.30;99.90
11650;DHT22;5881;48.522;7.682;2023-08-30T06:51:59;15.50;99.90
11650;DHT22;5881;48.522;7.682;2023-08-30T06:54:28;15.30;99.90
11650;DHT22;5881;48.522;7.682;2023-08-30T06:57:01;15.30;99.90
11650;DHT22;5881;48.522;7.682;2023-08-30T06:59:27;15.40;99.90
11650;DHT22;5881;48.522;7.682;2023-08-30T07:01:53;15.40;99.90
11650;DHT22;5881;48.522;7.682;2023-08-30T07:04:18;15.70;99.90
11650;DHT22;5881;48.522;7.682;2023-08-30T07:06:44;15.90;99.90
11650;DHT22;5881;48.522;7.682;2023-08-30T07:09:10;16.20;99.90
11650;DHT22;5881;48.522;7.682;2023-08-30T07:11:37;16.30;99.90
11650;DHT22;5881;48.522;7.682;2023-08-30T07:14:03;16.30;99.90
11650;DHT22;5881;48.522;7.682;2023-08-30T07:16:30;16.20;99.90
11650;DHT22;5881;48.522;7.682;2023-08-30T07:18:57;16.70;99.90
11650;DHT22;5881;48.522;7.682;2023-08-30T07:21:23;17.70;99.90
11650;DHT22;5881;48.522;7.682;2023-08-30T07:23:49;17.00;99.90
11650;DHT22;5881;48.522;7.682;2023-08-30T07:26:14;16.80;99.90
11650;DHT22;5881;48.522;7.682;2023-08-30T07:28:41;17.10;99.90
11650;DHT22;5881;48.522;7.682;2023-08-30T07:31:07;17.50;99.90
11650;DHT22;5881;48.522;7.682;2023-08-30T07:33:33;17.70;99.90
11650;DHT22;5881;48.522;7.682;2023-08-30T07:35:58;18.60;99.90
11650;DHT22;5881;48.522;7.682;2023-08-30T07:38:24;18.90;99.90
11650;DHT22;5881;48.522;7.682;2023-08-30T07:40:50;19.30;99.90
11650;DHT22;5881;48.522;7.682;2023-08-30T07:43:15;19.30;99.90
11650;DHT22;5881;48.522;7.682;2023-08-30T07:45:41;18.90;99.90
11650;DHT22;5881;48.522;7.682;2023-08-30T07:48:07;19.10;99.90
11650;DHT22;5881;48.522;7.682;2023-08-30T07:50:32;19.40;99.90
11650;DHT22;5881;48.522;7.682;2023-08-30T07:52:58;19.10;99.90
11650;DHT22;5881;48.522;7.682;2023-08-30T07:55:24;19.10;99.90
11650;DHT22;5881;48.522;7.682;2023-08-30T07:57:49;18.40;99.90
11650;DHT22;5881;48.522;7.682;2023-08-30T08:00:15;18.50;99.90
11650;DHT22;5881;48.522;7.682;2023-08-30T08:02:41;18.60;99.90
11650;DHT22;5881;48.522;7.682;2023-08-30T08:05:07;18.70;99.90
11650;DHT22;5881;48.522;7.682;2023-08-30T08:07:33;19.30;99.90
11650;DHT22;5881;48.522;7.682;2023-08-30T08:09:58;19.50;99.90
11650;DHT22;5881;48.522;7.682;2023-08-30T08:12:26;19.70;99.90
11650;DHT22;5881;48.522;7.682;2023-08-30T08:14:51;20.10;99.90
11650;DHT22;5881;48.522;7.682;2023-08-30T08:17:17;19.80;99.90
11650;DHT22;5881;48.522;7.682;2023-08-30T08:19:43;20.40;99.90
11650;DHT22;5881;48.522;7.682;2023-08-30T08:22:09;20.50;99.90
11650;DHT22;5881;48.522;7.682;2023-08-30T08:24:35;20.50;99.90
11650;DHT22;5881;48.522;7.682;2023-08-30T08:27:00;20.90;99.90
11650;DHT22;5881;48.522;7.682;2023-08-30T08:29:27;21.20;98.50
11650;DHT22;5881;48.522;7.682;2023-08-30T08:31:53;21.40;96.30
11650;DHT22;5881;48.522;7.682;2023-08-30T08:34:19;21.20;82.20
11650;DHT22;5881;48.522;7.682;2023-08-30T08:36:44;21.00;82.20
11650;DHT22;5881;48.522;7.682;2023-08-30T08:39:10;22.30;85.60
11650;DHT22;5881;48.522;7.682;2023-08-30T08:41:43;22.10;53.30
11650;DHT22;5881;48.522;7.682;2023-08-30T08:44:10;21.60;46.20
11650;DHT22;5881;48.522;7.682;2023-08-30T08:46:37;21.20;43.00
11650;DHT22;5881;48.522;7.682;2023-08-30T08:49:16;21.10;41.60
11650;DHT22;5881;48.522;7.682;2023-08-30T08:51:43;20.50;39.10
11650;DHT22;5881;48.522;7.682;2023-08-30T08:54:09;20.30;45.90
11650;DHT22;5881;48.522;7.682;2023-08-30T08:56:36;19.60;41.60
11650;DHT22;5881;48.522;7.682;2023-08-30T08:59:03;19.30;45.10
11650;DHT22;5881;48.522;7.682;2023-08-30T09:01:29;20.00;53.90
11650;DHT22;5881;48.522;7.682;2023-08-30T09:03:57;19.70;47.70
11650;DHT22;5881;48.522;7.682;2023-08-30T09:06:23;19.70;53.50
11650;DHT22;5881;48.522;7.682;2023-08-30T09:08:49;19.90;55.60
11650;DHT22;5881;48.522;7.682;2023-08-30T09:11:14;20.10;53.80
11650;DHT22;5881;48.522;7.682;2023-08-30T09:13:42;20.10;57.20
11650;DHT22;5881;48.522;7.682;2023-08-30T09:16:15;20.30;56.30
11650;DHT22;5881;48.522;7.682;2023-08-30T09:18:44;21.00;55.30
11650;DHT22;5881;48.522;7.682;2023-08-30T09:21:10;21.80;50.40
11650;DHT22;5881;48.522;7.682;2023-08-30T09:23:37;21.30;42.60
11650;DHT22;5881;48.522;7.682;2023-08-30T09:26:33;21.10;40.40
11650;DHT22;5881;48.522;7.682;2023-08-30T09:29:06;20.90;39.40
11650;DHT22;5881;48.522;7.682;2023-08-30T09:31:36;21.10;40.20
11650;DHT22;5881;48.522;7.682;2023-08-30T09:34:03;21.40;33.50
11650;DHT22;5881;48.522;7.682;2023-08-30T09:36:35;21.10;35.20
11650;DHT22;5881;48.522;7.682;2023-08-30T09:39:12;21.00;31.20
11650;DHT22;5881;48.522;7.682;2023-08-30T09:41:42;21.40;37.10
11650;DHT22;5881;48.522;7.682;2023-08-30T09:44:12;22.50;35.50
11650;DHT22;5881;48.522;7.682;2023-08-30T09:46:45;22.90;14.20
11650;DHT22;5881;48.522;7.682;2023-08-30T09:49:12;23.70;8.50
11650;DHT22;5881;48.522;7.682;2023-08-30T09:51:41;23.40;1.00
11650;DHT22;5881;48.522;7.682;2023-08-30T09:54:18;22.60;1.00
11650;DHT22;5881;48.522;7.682;2023-08-30T09:56:45;22.20;1.00
11650;DHT22;5881;48.522;7.682;2023-08-30T09:59:12;21.70;1.00
11650;DHT22;5881;48.522;7.682;2023-08-30T10:01:40;21.30;1.00
11650;DHT22;5881;48.522;7.682;2023-08-30T10:04:07;21.60;1.00
11650;DHT22;5881;48.522;7.682;2023-08-30T10:06:39;21.80;1.00
11650;DHT22;5881;48.522;7.682;2023-08-30T10:09:06;22.00;1.00
11650;DHT22;5881;48.522;7.682;2023-08-30T10:11:36;21.70;1.00
11650;DHT22;5881;48.522;7.682;2023-08-30T10:14:03;21.60;1.00
11650;DHT22;5881;48.522;7.682;2023-08-30T10:16:50;23.90;1.00
11650;DHT22;5881;48.522;7.682;2023-08-30T10:19:28;25.10;1.00
11650;DHT22;5881;48.522;7.682;2023-08-30T10:22:02;26.00;1.00
11650;DHT22;5881;48.522;7.682;2023-08-30T10:24:45;26.40;1.00
11650;DHT22;5881;48.522;7.682;2023-08-30T10:27:13;27.50;1.00
11650;DHT22;5881;48.522;7.682;2023-08-30T10:29:41;25.90;1.00
11650;DHT22;5881;48.522;7.682;2023-08-30T10:32:07;25.20;1.00
11650;DHT22;5881;48.522;7.682;2023-08-30T10:34:34;26.20;1.00
11650;DHT22;5881;48.522;7.682;2023-08-30T10:37:00;25.10;1.00
11650;DHT22;5881;48.522;7.682;2023-08-30T10:39:38;25.10;1.00
11650;DHT22;5881;48.522;7.682;2023-08-30T10:42:09;23.80;1.00
11650;DHT22;5881;48.522;7.682;2023-08-30T10:47:22;22.80;1.00
11650;DHT22;5881;48.522;7.682;2023-08-30T10:49:47;22.40;1.00
11650;DHT22;5881;48.522;7.682;2023-08-30T10:52:14;22.50;1.00
11650;DHT22;5881;48.522;7.682;2023-08-30T10:54:39;22.50;1.00
11650;DHT22;5881;48.522;7.682;2023-08-30T10:57:05;22.10;1.00
11650;DHT22;5881;48.522;7.682;2023-08-30T10:59:30;23.00;1.00
11650;DHT22;5881;48.522;7.682;2023-08-30T11:01:56;22.90;1.00
11650;DHT22;5881;48.522;7.682;2023-08-30T11:04:26;22.80;1.00
11650;DHT22;5881;48.522;7.682;2023-08-30T11:06:51;22.60;1.00
11650;DHT22;5881;48.522;7.682;2023-08-30T11:09:19;24.70;1.00
11650;DHT22;5881;48.522;7.682;2023-08-30T11:11:49;25.30;1.00
11650;DHT22;5881;48.522;7.682;2023-08-30T11:14:16;25.40;1.00
11650;DHT22;5881;48.522;7.682;2023-08-30T11:16:44;24.70;1.00
11650;DHT22;5881;48.522;7.682;2023-08-30T11:19:11;25.00;1.00
11650;DHT22;5881;48.522;7.682;2023-08-30T11:21:42;25.20;1.00
11650;DHT22;5881;48.522;7.682;2023-08-30T11:24:08;25.30;1.00
11650;DHT22;5881;48.522;7.682;2023-08-30T11:26:35;25.30;1.00
11650;DHT22;5881;48.522;7.682;2023-08-30T11:29:12;25.80;1.00
11650;DHT22;5881;48.522;7.682;2023-08-30T11:31:39;25.50;1.00
11650;DHT22;5881;48.522;7.682;2023-08-30T11:34:09;24.90;1.00
11650;DHT22;5881;48.522;7.682;2023-08-30T11:36:38;26.00;1.00
11650;DHT22;5881;48.522;7.682;2023-08-30T11:39:33;25.60;1.00
11650;DHT22;5881;48.522;7.682;2023-08-30T11:41:59;24.60;1.00
11650;DHT22;5881;48.522;7.682;2023-08-30T11:44:28;24.60;1.00
11650;DHT22;5881;48.522;7.682;2023-08-30T11:46:59;23.80;1.00
11650;DHT22;5881;48.522;7.682;2023-08-30T11:49:27;24.00;1.00
11650;DHT22;5881;48.522;7.682;2023-08-30T11:51:53;24.60;1.00
11650;DHT22;5881;48.522;7.682;2023-08-30T11:54:22;24.30;1.00
11650;DHT22;5881;48.522;7.682;2023-08-30T11:56:48;23.30;1.00
11650;DHT22;5881;48.522;7.682;2023-08-30T11:59:21;23.00;1.00
11650;DHT22;5881;48.522;7.682;2023-08-30T12:01:52;23.70;1.00
11650;DHT22;5881;48.522;7.682;2023-08-30T12:04:18;23.70;1.00
11650;DHT22;5881;48.522;7.682;2023-08-30T12:06:51;23.90;1.00
11650;DHT22;5881;48.522;7.682;2023-08-30T12:09:16;23.80;1.00
11650;DHT22;5881;48.522;7.682;2023-08-30T12:11:42;23.10;1.00
11650;DHT22;5881;48.522;7.682;2023-08-30T12:14:08;22.80;1.00
11650;DHT22;5881;48.522;7.682;2023-08-30T12:16:33;23.30;1.00
11650;DHT22;5881;48.522;7.682;2023-08-30T12:19:11;24.00;1.00
11650;DHT22;5881;48.522;7.682;2023-08-30T12:21:44;24.00;1.00
11650;DHT22;5881;48.522;7.682;2023-08-30T12:24:10;24.00;1.00
11650;DHT22;5881;48.522;7.682;2023-08-30T12:26:36;24.20;1.00
11650;DHT22;5881;48.522;7.682;2023-08-30T12:29:05;23.70;1.00
11650;DHT22;5881;48.522;7.682;2023-08-30T12:31:32;24.40;1.00
11650;DHT22;5881;48.522;7.682;2023-08-30T12:33:58;24.40;1.00
11650;DHT22;5881;48.522;7.682;2023-08-30T12:36:23;24.40;1.00
11650;DHT22;5881;48.522;7.682;2023-08-30T12:38:50;24.30;1.00
11650;DHT22;5881;48.522;7.682;2023-08-30T12:41:15;24.90;1.00
11650;DHT22;5881;48.522;7.682;2023-08-30T12:43:41;24.80;1.00
11650;DHT22;5881;48.522;7.682;2023-08-30T12:46:07;24.50;1.00
11650;DHT22;5881;48.522;7.682;2023-08-30T12:48:32;25.00;1.00
11650;DHT22;5881;48.522;7.682;2023-08-30T12:50:58;24.30;1.00
11650;DHT22;5881;48.522;7.682;2023-08-30T12:53:24;24.20;1.00
11650;DHT22;5881;48.522;7.682;2023-08-30T12:55:49;23.60;1.00
11650;DHT22;5881;48.522;7.682;2023-08-30T12:58:15;23.50;1.00
11650;DHT22;5881;48.522;7.682;2023-08-30T13:00:41;23.60;1.00
11650;DHT22;5881;48.522;7.682;2023-08-30T13:03:06;24.00;1.00
11650;DHT22;5881;48.522;7.682;2023-08-30T13:05:32;24.00;1.00
11650;DHT22;5881;48.522;7.682;2023-08-30T13:07:59;24.00;1.00
11650;DHT22;5881;48.522;7.682;2023-08-30T13:10:25;24.00;1.00
11650;DHT22;5881;48.522;7.682;2023-08-30T13:12:51;24.40;1.00
11650;DHT22;5881;48.522;7.682;2023-08-30T13:15:17;24.30;1.00
11650;DHT22;5881;48.522;7.682;2023-08-30T13:17:43;23.40;1.00
11650;DHT22;5881;48.522;7.682;2023-08-30T13:20:11;23.40;1.00
11650;DHT22;5881;48.522;7.682;2023-08-30T13:22:37;23.70;1.00
11650;DHT22;5881;48.522;7.682;2023-08-30T13:25:02;24.10;1.00
11650;DHT22;5881;48.522;7.682;2023-08-30T13:27:31;24.40;1.00
11650;DHT22;5881;48.522;7.682;2023-08-30T13:29:59;24.50;1.00
11650;DHT22;5881;48.522;7.682;2023-08-30T13:32:35;24.20;1.00
11650;DHT22;5881;48.522;7.682;2023-08-30T13:35:01;24.20;1.00
11650;DHT22;5881;48.522;7.682;2023-08-30T13:37:27;24.30;1.00
11650;DHT22;5881;48.522;7.682;2023-08-30T13:39:52;24.40;1.00
11650;DHT22;5881;48.522;7.682;2023-08-30T13:42:19;24.30;1.00
11650;DHT22;5881;48.522;7.682;2023-08-30T13:44:44;24.00;1.00
11650;DHT22;5881;48.522;7.682;2023-08-30T13:47:10;24.30;1.00
11650;DHT22;5881;48.522;7.682;2023-08-30T13:49:36;24.50;1.00
11650;DHT22;5881;48.522;7.682;2023-08-30T13:52:03;24.30;1.00
11650;DHT22;5881;48.522;7.682;2023-08-30T13:54:28;24.20;1.00
11650;DHT22;5881;48.522;7.682;2023-08-30T13:56:57;23.50;1.00
11650;DHT22;5881;48.522;7.682;2023-08-30T13:59:23;23.20;1.00
11650;DHT22;5881;48.522;7.682;2023-08-30T14:01:48;22.80;1.00
11650;DHT22;5881;48.522;7.682;2023-08-30T14:04:14;22.60;1.00
11650;DHT22;5881;48.522;7.682;2023-08-30T14:06:40;22.70;1.00
11650;DHT22;5881;48.522;7.682;2023-08-30T14:09:05;22.80;1.00
11650;DHT22;5881;48.522;7.682;2023-08-30T14:11:36;23.30;1.00
11650;DHT22;5881;48.522;7.682;2023-08-30T14:14:03;23.50;1.00
11650;DHT22;5881;48.522;7.682;2023-08-30T14:16:29;23.20;1.00
11650;DHT22;5881;48.522;7.682;2023-08-30T14:18:54;23.20;1.00
11650;DHT22;5881;48.522;7.682;2023-08-30T14:21:20;23.30;1.00
11650;DHT22;5881;48.522;7.682;2023-08-30T14:23:45;23.20;1.00
11650;DHT22;5881;48.522;7.682;2023-08-30T14:26:11;22.80;1.00
11650;DHT22;5881;48.522;7.682;2023-08-30T14:28:39;22.80;1.00
11650;DHT22;5881;48.522;7.682;2023-08-30T14:31:11;22.80;1.00
11650;DHT22;5881;48.522;7.682;2023-08-30T14:33:37;23.10;1.00
11650;DHT22;5881;48.522;7.682;2023-08-30T14:36:08;23.10;1.00
11650;DHT22;5881;48.522;7.682;2023-08-30T14:38:33;22.70;1.00
11650;DHT22;5881;48.522;7.682;2023-08-30T14:41:00;22.60;1.00
11650;DHT22;5881;48.522;7.682;2023-08-30T14:43:27;22.80;1.00
11650;DHT22;5881;48.522;7.682;2023-08-30T14:46:03;23.10;1.00
11650;DHT22;5881;48.522;7.682;2023-08-30T14:48:29;23.30;1.00
11650;DHT22;5881;48.522;7.682;2023-08-30T14:50:57;23.30;1.00
11650;DHT22;5881;48.522;7.682;2023-08-30T14:53:23;23.30;1.00
11650;DHT22;5881;48.522;7.682;2023-08-30T14:55:48;23.80;1.00
11650;DHT22;5881;48.522;7.682;2023-08-30T14:58:14;23.20;1.00
11650;DHT22;5881;48.522;7.682;2023-08-30T15:00:40;22.90;1.00
11650;DHT22;5881;48.522;7.682;2023-08-30T15:03:05;22.90;1.00
11650;DHT22;5881;48.522;7.682;2023-08-30T15:05:31;23.10;1.00
11650;DHT22;5881;48.522;7.682;2023-08-30T15:07:57;23.50;1.00
11650;DHT22;5881;48.522;7.682;2023-08-30T15:10:23;23.60;1.00
11650;DHT22;5881;48.522;7.682;2023-08-30T15:12:48;23.80;1.00
11650;DHT22;5881;48.522;7.682;2023-08-30T15:15:14;23.80;1.00
11650;DHT22;5881;48.522;7.682;2023-08-30T15:17:40;23.70;1.00
11650;DHT22;5881;48.522;7.682;2023-08-30T15:20:08;23.70;1.00
11650;DHT22;5881;48.522;7.682;2023-08-30T15:22:34;23.50;1.00
11650;DHT22;5881;48.522;7.682;2023-08-30T15:25:00;23.30;1.00
11650;DHT22;5881;48.522;7.682;2023-08-30T15:27:33;22.90;1.00
11650;DHT22;5881;48.522;7.682;2023-08-30T15:29:58;22.80;1.00
11650;DHT22;5881;48.522;7.682;2023-08-30T15:32:24;22.90;1.00
11650;DHT22;5881;48.522;7.682;2023-08-30T15:34:50;22.90;1.00
11650;DHT22;5881;48.522;7.682;2023-08-30T15:37:16;23.00;1.00
11650;DHT22;5881;48.522;7.682;2023-08-30T15:39:42;22.80;1.00
11650;DHT22;5881;48.522;7.682;2023-08-30T15:42:08;22.80;1.00
11650;DHT22;5881;48.522;7.682;2023-08-30T15:44:33;22.90;1.00
11650;DHT22;5881;48.522;7.682;2023-08-30T15:46:59;22.80;1.00
11650;DHT22;5881;48.522;7.682;2023-08-30T15:49:25;22.70;1.00
11650;DHT22;5881;48.522;7.682;2023-08-30T15:51:50;22.60;1.00
11650;DHT22;5881;48.522;7.682;2023-08-30T15:54:16;22.40;1.00
11650;DHT22;5881;48.522;7.682;2023-08-30T15:56:42;22.20;1.00